createdAt,value
2023-08-22T00:01:39.577Z,100971.94
2023-08-22T00:04:06.822Z,100959.91
2023-08-22T00:06:34.503Z,100979.09
2023-08-22T00:09:05.011Z,100975.59
2023-08-22T00:11:32.439Z,100972.97
2023-08-22T00:14:00.197Z,100972.34
2023-08-22T00:16:27.499Z,100972.44
2023-08-22T00:18:54.900Z,100976.19
2023-08-22T00:21:22.769Z,100971.22
2023-08-22T00:23:50.263Z,100978.34
2023-08-22T00:26:17.799Z,100968.13
2023-08-22T00:28:45.117Z,100947.59
2023-08-22T00:31:12.508Z,100981.22
2023-08-22T00:33:39.861Z,100976.91
2023-08-22T00:36:07.485Z,100947.00
2023-08-22T00:38:34.867Z,100961.69
2023-08-22T00:41:02.135Z,100975.59
2023-08-22T00:43:29.414Z,100968.84
2023-08-22T00:45:57.856Z,100973.44
2023-08-22T00:48:25.244Z,100970.91
2023-08-22T00:50:53.082Z,100964.94
2023-08-22T00:53:20.728Z,100962.34
2023-08-22T00:55:48.186Z,100957.28
2023-08-22T00:58:15.665Z,100964.31
2023-08-22T01:00:43.359Z,100959.16
2023-08-22T01:03:11.700Z,100959.19
2023-08-22T01:05:46.670Z,100954.88
2023-08-22T01:08:20.834Z,100936.69
2023-08-22T01:10:53.875Z,100949.28
2023-08-22T01:13:29.399Z,100950.06
2023-08-22T01:15:58.477Z,100956.09
2023-08-22T01:18:26.760Z,100962.41
2023-08-22T01:21:08.411Z,100960.72
2023-08-22T01:23:35.700Z,100957.50
2023-08-22T01:26:03.900Z,100955.66
2023-08-22T01:28:58.214Z,100954.53
2023-08-22T01:31:47.436Z,100953.59
2023-08-22T01:34:23.350Z,100940.94
2023-08-22T01:36:56.052Z,100961.91
2023-08-22T01:39:26.641Z,100964.81
2023-08-22T01:41:55.886Z,100963.28
2023-08-22T01:44:23.450Z,100953.00
2023-08-22T01:46:50.922Z,100955.00
2023-08-22T01:49:18.344Z,100950.81
2023-08-22T01:51:45.659Z,100957.88
2023-08-22T01:54:13.147Z,100960.69
2023-08-22T01:56:40.644Z,100956.41
2023-08-22T01:59:08.011Z,100964.22
2023-08-22T02:01:35.311Z,100967.38
2023-08-22T02:04:05.257Z,100961.75
2023-08-22T02:06:33.298Z,100964.38
2023-08-22T02:09:00.522Z,100956.78
2023-08-22T02:11:27.952Z,100946.84
2023-08-22T02:13:56.415Z,100952.94
2023-08-22T02:16:23.931Z,100949.59
2023-08-22T02:18:51.226Z,100955.34
2023-08-22T02:21:19.124Z,100935.41
2023-08-22T02:23:46.330Z,100950.28
2023-08-22T02:26:13.962Z,100955.78
2023-08-22T02:28:41.367Z,100949.09
2023-08-22T02:31:08.847Z,100946.75
2023-08-22T02:33:36.215Z,100951.16
2023-08-22T02:36:03.816Z,100951.19
2023-08-22T02:38:32.547Z,100940.97
2023-08-22T02:40:59.907Z,100952.94
2023-08-22T02:43:27.392Z,100947.06
2023-08-22T02:45:55.996Z,100934.22
2023-08-22T02:48:23.426Z,100947.19
2023-08-22T02:50:51.589Z,100956.78
2023-08-22T02:53:19.073Z,100955.13
2023-08-22T02:55:50.153Z,100951.72
2023-08-22T02:58:17.596Z,100944.84
2023-08-22T03:00:48.150Z,100944.84
2023-08-22T03:03:16.297Z,100932.78
2023-08-22T03:05:45.444Z,100936.19
2023-08-22T03:08:13.434Z,100938.84
2023-08-22T03:10:42.045Z,100942.34
2023-08-22T03:13:09.332Z,100938.06
2023-08-22T03:15:36.685Z,100945.97
2023-08-22T03:18:04.270Z,100943.47
2023-08-22T03:20:32.278Z,100934.06
2023-08-22T03:23:02.212Z,100952.38
2023-08-22T03:25:29.740Z,100949.81
2023-08-22T03:27:57.128Z,100948.19
2023-08-22T03:30:24.705Z,100949.03
2023-08-22T03:32:52.193Z,100929.66
2023-08-22T03:35:19.590Z,100933.63
2023-08-22T03:37:47.064Z,100899.44
2023-08-22T03:40:15.785Z,100927.94
2023-08-22T03:42:46.538Z,100913.56
2023-08-22T03:45:13.723Z,100928.19
2023-08-22T03:47:41.075Z,100924.84
2023-08-22T03:50:08.797Z,100935.41
2023-08-22T03:52:36.648Z,100932.09
2023-08-22T03:55:03.880Z,100932.03
2023-08-22T03:57:31.000Z,100927.81
2023-08-22T03:59:58.665Z,100930.19
2023-08-22T04:02:27.587Z,100930.81
2023-08-22T04:04:58.829Z,100924.75
2023-08-22T04:07:26.539Z,100918.00
2023-08-22T04:09:53.637Z,100926.78
2023-08-22T04:12:20.841Z,100924.28
2023-08-22T04:14:47.986Z,100922.25
2023-08-22T04:17:15.086Z,100884.97
2023-08-22T04:19:43.314Z,100920.00
2023-08-22T04:22:10.395Z,100904.00
2023-08-22T04:24:37.458Z,100931.69
2023-08-22T04:27:05.121Z,100931.84
2023-08-22T04:29:33.103Z,100924.84
2023-08-22T04:32:04.896Z,100923.97
2023-08-22T04:34:32.986Z,100928.31
2023-08-22T04:37:02.275Z,100906.91
2023-08-22T04:39:29.669Z,100917.94
2023-08-22T04:42:09.361Z,100929.91
2023-08-22T04:44:49.420Z,100928.19
2023-08-22T04:47:16.612Z,100927.19
2023-08-22T04:49:43.810Z,100921.00
2023-08-22T04:52:10.924Z,100924.94
2023-08-22T04:54:38.114Z,100934.81
2023-08-22T04:57:05.613Z,100910.53
2023-08-22T04:59:33.841Z,100911.31
2023-08-22T05:02:01.060Z,100929.22
2023-08-22T05:04:29.665Z,100922.13
2023-08-22T05:06:56.936Z,100928.16
2023-08-22T05:09:24.083Z,100923.59
2023-08-22T05:11:51.813Z,100932.69
2023-08-22T05:14:19.064Z,100941.28
2023-08-22T05:16:46.363Z,100933.13
2023-08-22T05:19:13.569Z,100932.06
2023-08-22T05:21:41.555Z,100936.81
2023-08-22T05:24:09.192Z,100927.84
2023-08-22T05:26:36.356Z,100934.31
2023-08-22T05:29:03.778Z,100935.03
2023-08-22T05:31:31.068Z,100939.25
2023-08-22T05:33:59.600Z,100944.34
2023-08-22T05:36:26.802Z,100934.66
2023-08-22T05:38:54.280Z,100935.25
2023-08-22T05:41:22.244Z,100934.19
2023-08-22T05:43:49.373Z,100936.56
2023-08-22T05:46:16.601Z,100944.91
2023-08-22T05:48:43.960Z,100936.16
2023-08-22T05:51:12.255Z,100937.50
2023-08-22T05:53:39.662Z,100946.03
2023-08-22T05:56:07.724Z,100946.66
2023-08-22T05:58:35.739Z,100945.47
2023-08-22T06:01:12.028Z,100948.66
2023-08-22T06:03:40.184Z,100939.69
2023-08-22T06:06:08.430Z,100947.25
2023-08-22T06:08:36.376Z,100939.94
2023-08-22T06:11:03.634Z,100950.91
2023-08-22T06:13:32.266Z,100942.69
2023-08-22T06:15:59.841Z,100939.69
2023-08-22T06:18:27.124Z,100943.69
2023-08-22T06:20:59.192Z,100934.59
2023-08-22T06:23:26.924Z,100934.97
2023-08-22T06:25:54.174Z,100934.28
2023-08-22T06:28:21.256Z,100931.13
2023-08-22T06:30:48.575Z,100936.56
2023-08-22T06:33:17.963Z,100937.78
2023-08-22T06:35:48.633Z,100930.28
2023-08-22T06:38:15.860Z,100936.44
2023-08-22T06:40:43.523Z,100931.31
2023-08-22T06:43:10.711Z,100908.56
2023-08-22T06:45:38.938Z,100925.75
2023-08-22T06:48:06.589Z,100921.91
2023-08-22T06:50:33.928Z,100894.00
2023-08-22T06:53:01.666Z,100912.38
2023-08-22T06:55:28.746Z,100916.28
2023-08-22T06:57:55.921Z,100916.66
2023-08-22T07:00:23.121Z,100917.69
2023-08-22T07:02:50.513Z,100906.78
2023-08-22T07:05:17.936Z,100908.22
2023-08-22T07:07:45.461Z,100912.03
2023-08-22T07:10:16.328Z,100901.72
2023-08-22T07:12:45.455Z,100879.63
2023-08-22T07:15:13.021Z,100894.75
2023-08-22T07:17:43.586Z,100900.94
2023-08-22T07:20:12.844Z,100896.72
2023-08-22T07:22:40.446Z,100892.66
2023-08-22T07:25:08.329Z,100888.72
2023-08-22T07:27:35.501Z,100886.09
2023-08-22T07:30:02.817Z,100888.03
2023-08-22T07:32:31.283Z,100886.09
2023-08-22T07:34:59.567Z,100888.63
2023-08-22T07:37:27.900Z,100894.44
2023-08-22T07:39:54.978Z,100862.78
2023-08-22T07:42:22.209Z,100873.00
2023-08-22T07:44:49.317Z,100880.38
2023-08-22T07:47:16.430Z,100887.38
2023-08-22T07:49:43.605Z,100890.28
2023-08-22T07:52:11.498Z,100904.31
2023-08-22T07:54:38.648Z,100907.03
2023-08-22T07:57:17.748Z,100902.97
2023-08-22T07:59:45.929Z,100899.09
2023-08-22T08:02:13.164Z,100888.97
2023-08-22T08:04:40.341Z,100882.19
2023-08-22T08:07:07.617Z,100876.31
2023-08-22T08:09:36.102Z,100869.34
2023-08-22T08:12:05.158Z,100873.00
2023-08-22T08:14:32.388Z,100862.06
2023-08-22T08:16:59.652Z,100861.56
2023-08-22T08:19:27.863Z,100857.19
2023-08-22T08:21:55.346Z,100843.06
2023-08-22T08:24:22.607Z,100840.69
2023-08-22T08:26:49.764Z,100840.69
2023-08-22T08:29:19.170Z,100842.22
2023-08-22T08:31:46.470Z,100844.31
2023-08-22T08:34:13.924Z,100838.41
2023-08-22T08:36:41.124Z,100828.34
2023-08-22T08:39:08.411Z,100843.06
2023-08-22T08:41:40.868Z,100843.53
2023-08-22T08:44:09.249Z,100834.22
2023-08-22T08:46:36.979Z,100846.88
2023-08-22T08:49:05.911Z,100845.19
2023-08-22T08:51:34.609Z,100833.75
2023-08-22T08:54:01.810Z,100833.06
2023-08-22T08:56:29.056Z,100844.69
2023-08-22T08:58:56.153Z,100838.75
2023-08-22T09:01:27.712Z,100836.00
2023-08-22T09:03:55.164Z,100853.22
2023-08-22T09:06:22.421Z,100858.94
2023-08-22T09:09:10.207Z,100855.84
2023-08-22T09:11:46.693Z,100844.91
2023-08-22T09:14:22.670Z,100814.44
2023-08-22T09:16:50.696Z,100834.81
2023-08-22T09:19:18.043Z,100843.06
2023-08-22T09:22:02.248Z,100843.66
2023-08-22T09:24:29.445Z,100845.97
2023-08-22T09:26:57.431Z,100817.63
2023-08-22T09:29:29.125Z,100838.41
2023-08-22T09:32:02.411Z,100834.44
2023-08-22T09:34:30.319Z,100835.81
2023-08-22T09:36:57.594Z,100824.81
2023-08-22T09:39:25.990Z,100828.84
2023-08-22T09:41:57.842Z,100821.56
2023-08-22T09:44:30.304Z,100831.81
2023-08-22T09:46:58.662Z,100832.00
2023-08-22T09:49:25.886Z,100832.78
2023-08-22T09:51:57.309Z,100808.19
2023-08-22T09:54:24.881Z,100817.63
2023-08-22T09:56:52.678Z,100820.81
2023-08-22T09:59:21.133Z,100821.34
2023-08-22T10:01:50.034Z,100822.31
2023-08-22T10:04:19.951Z,100822.19
2023-08-22T10:06:50.835Z,100832.44
2023-08-22T10:09:19.964Z,100820.00
2023-08-22T10:11:52.096Z,100816.13
2023-08-22T10:14:31.237Z,100809.34
2023-08-22T10:16:59.686Z,100814.31
2023-08-22T10:19:28.254Z,100811.13
2023-08-22T10:21:55.629Z,100812.53
2023-08-22T10:24:31.200Z,100814.13
2023-08-22T10:27:05.327Z,100814.00
2023-08-22T10:29:37.812Z,100817.00
2023-08-22T10:32:04.918Z,100815.47
2023-08-22T10:34:41.798Z,100815.63
2023-08-22T10:37:20.007Z,100802.66
2023-08-22T10:39:49.976Z,100797.72
2023-08-22T10:42:18.446Z,100810.41
2023-08-22T10:44:52.935Z,100819.16
2023-08-22T10:47:22.624Z,100804.97
2023-08-22T10:52:33.603Z,100811.81
2023-08-22T10:55:04.576Z,100801.81
2023-08-22T10:57:34.066Z,100805.59
2023-08-22T11:00:01.192Z,100804.25
2023-08-22T11:02:33.382Z,100797.41
2023-08-22T11:05:02.315Z,100791.16
2023-08-22T11:07:30.747Z,100790.06
2023-08-22T11:09:58.885Z,100783.81
2023-08-22T11:12:28.570Z,100771.53
2023-08-22T11:14:59.075Z,100761.13
2023-08-22T11:17:26.914Z,100780.97
2023-08-22T11:19:56.345Z,100766.91
2023-08-22T11:22:23.581Z,100770.44
2023-08-22T11:24:52.698Z,100772.81
2023-08-22T11:27:20.668Z,100768.16
2023-08-22T11:29:53.050Z,100770.97
2023-08-22T11:32:32.176Z,100768.00
2023-08-22T11:35:05.496Z,100770.69
2023-08-22T11:37:35.410Z,100778.53
2023-08-22T11:40:05.699Z,100776.16
2023-08-22T11:42:35.075Z,100771.81
2023-08-22T11:45:05.263Z,100777.91
2023-08-22T11:47:45.956Z,100775.47
2023-08-22T11:50:15.131Z,100768.88
2023-08-22T11:52:46.398Z,100773.50
2023-08-22T11:55:17.599Z,100772.22
2023-08-22T11:57:45.680Z,100743.34
2023-08-22T12:00:16.702Z,100778.56
2023-08-22T12:02:50.008Z,100767.28
2023-08-22T12:05:36.823Z,100755.66
2023-08-22T12:08:13.124Z,100759.63
2023-08-22T12:10:48.378Z,100750.63
2023-08-22T12:13:17.514Z,100751.47
2023-08-22T12:15:45.298Z,100746.13
2023-08-22T12:18:13.424Z,100743.13
2023-08-22T12:20:43.058Z,100746.13
2023-08-22T12:23:12.309Z,100744.41
2023-08-22T12:25:41.487Z,100741.00
2023-08-22T12:28:10.007Z,100740.34
2023-08-22T12:30:38.471Z,100734.00
2023-08-22T12:33:06.803Z,100730.22
2023-08-22T12:35:35.562Z,100718.56
2023-08-22T12:38:04.052Z,100730.03
2023-08-22T12:40:31.495Z,100731.28
2023-08-22T12:43:00.564Z,100713.66
2023-08-22T12:45:28.049Z,100721.91
2023-08-22T12:47:55.762Z,100720.25
2023-08-22T12:50:23.091Z,100723.72
2023-08-22T12:52:50.426Z,100718.81
2023-08-22T12:55:18.871Z,100737.69
2023-08-22T12:57:46.217Z,100734.72
2023-08-22T13:00:13.681Z,100734.25
2023-08-22T13:02:42.473Z,100729.47
2023-08-22T13:05:09.829Z,100735.94
2023-08-22T13:07:37.187Z,100722.97
2023-08-22T13:10:06.285Z,100706.94
2023-08-22T13:12:35.869Z,100699.41
2023-08-22T13:15:04.958Z,100693.13
2023-08-22T13:17:32.222Z,100693.56
2023-08-22T13:20:00.437Z,100699.81
2023-08-22T13:22:27.767Z,100693.81
2023-08-22T13:24:54.917Z,100694.63
2023-08-22T13:27:22.463Z,100685.88
2023-08-22T13:29:49.660Z,100696.78
2023-08-22T13:32:16.899Z,100694.72
2023-08-22T13:34:44.087Z,100708.50
2023-08-22T13:37:11.412Z,100693.22
2023-08-22T13:39:38.578Z,100701.06
2023-08-22T13:42:05.745Z,100702.31
2023-08-22T13:44:32.957Z,100685.13
2023-08-22T13:47:00.471Z,100693.53
2023-08-22T13:49:29.190Z,100688.50
2023-08-22T13:51:56.430Z,100700.03
2023-08-22T13:54:23.674Z,100702.03
2023-08-22T13:56:51.059Z,100695.34
2023-08-22T13:59:18.400Z,100694.66
2023-08-22T14:01:47.880Z,100688.16
2023-08-22T14:04:17.433Z,100691.00
2023-08-22T14:06:44.801Z,100688.81
2023-08-22T14:09:25.842Z,100691.41
2023-08-22T14:11:54.556Z,100677.59
2023-08-22T14:14:22.240Z,100671.72
2023-08-22T14:16:50.520Z,100667.22
2023-08-22T14:19:17.750Z,100663.16
2023-08-22T14:21:48.267Z,100670.13
2023-08-22T14:24:17.105Z,100674.78
2023-08-22T14:26:44.957Z,100654.16
2023-08-22T14:29:12.240Z,100673.44
2023-08-22T14:31:39.595Z,100670.03
2023-08-22T14:34:06.947Z,100646.56
2023-08-22T14:36:34.169Z,100676.03
2023-08-22T14:39:01.390Z,100671.09
2023-08-22T14:41:28.956Z,100664.88
2023-08-22T14:43:57.342Z,100676.19
2023-08-22T14:46:24.584Z,100674.13
2023-08-22T14:48:51.941Z,100663.53
2023-08-22T14:51:19.968Z,100655.03
2023-08-22T14:53:48.078Z,100651.56
2023-08-22T14:56:15.377Z,100646.34
2023-08-22T14:58:48.132Z,100646.53
2023-08-22T15:01:15.962Z,100660.00
2023-08-22T15:03:43.674Z,100650.00
2023-08-22T15:06:11.158Z,100648.56
2023-08-22T15:08:38.456Z,100632.66
2023-08-22T15:11:06.876Z,100637.94
2023-08-22T15:13:34.845Z,100641.69
2023-08-22T15:16:02.283Z,100640.34
2023-08-22T15:18:29.657Z,100623.69
2023-08-22T15:20:58.231Z,100645.03
2023-08-22T15:23:25.510Z,100643.50
2023-08-22T15:25:56.684Z,100651.78
2023-08-22T15:28:24.568Z,100639.53
2023-08-22T15:30:59.149Z,100643.63
2023-08-22T15:33:29.555Z,100649.50
2023-08-22T15:35:59.982Z,100646.09
2023-08-22T15:38:33.673Z,100647.88
2023-08-22T15:41:02.573Z,100654.53
2023-08-22T15:43:31.477Z,100661.84
2023-08-22T15:45:58.888Z,100671.72
2023-08-22T15:48:26.140Z,100670.25
2023-08-22T15:50:56.353Z,100672.13
2023-08-22T15:53:23.416Z,100664.38
2023-08-22T15:55:51.519Z,100630.50
2023-08-22T15:58:18.765Z,100656.03
2023-08-22T16:00:46.076Z,100642.97
2023-08-22T16:03:14.093Z,100622.00
2023-08-22T16:05:41.498Z,100617.03
2023-08-22T16:08:08.690Z,100635.09
2023-08-22T16:10:35.957Z,100636.84
2023-08-22T16:13:03.246Z,100624.53
2023-08-22T16:15:30.857Z,100611.69
2023-08-22T16:17:59.049Z,100628.28
2023-08-22T16:20:26.637Z,100635.09
2023-08-22T16:22:53.864Z,100625.53
2023-08-22T16:25:21.216Z,100621.56
2023-08-22T16:27:48.413Z,100629.16
2023-08-22T16:30:15.897Z,100627.63
2023-08-22T16:32:43.132Z,100622.16
2023-08-22T16:35:10.837Z,100600.00
2023-08-22T16:37:38.124Z,100607.00
2023-08-22T16:40:06.728Z,100605.28
2023-08-22T16:42:33.904Z,100597.38
2023-08-22T16:45:01.176Z,100591.09
2023-08-22T16:47:28.759Z,100597.25
2023-08-22T16:49:56.519Z,100604.22
2023-08-22T16:52:24.032Z,100620.19
2023-08-22T16:54:54.494Z,100618.81
2023-08-22T16:57:22.707Z,100636.19
2023-08-22T16:59:50.119Z,100627.94
2023-08-22T17:02:17.421Z,100644.53
2023-08-22T17:04:44.617Z,100630.81
2023-08-22T17:07:11.853Z,100641.88
2023-08-22T17:09:39.113Z,100630.81
2023-08-22T17:12:06.429Z,100631.06
2023-08-22T17:14:35.660Z,100636.41
2023-08-22T17:17:02.902Z,100627.44
2023-08-22T17:19:30.609Z,100625.53
2023-08-22T17:21:57.665Z,100624.00
2023-08-22T17:24:24.889Z,100625.09
2023-08-22T17:26:52.211Z,100612.78
2023-08-22T17:29:19.569Z,100608.19
2023-08-22T17:31:46.754Z,100598.66
2023-08-22T17:34:14.334Z,100602.91
2023-08-22T17:36:41.566Z,100604.00
2023-08-22T17:39:09.092Z,100592.72
2023-08-22T17:41:36.333Z,100605.72
2023-08-22T17:44:03.615Z,100605.78
2023-08-22T17:46:31.037Z,100604.78
2023-08-22T17:48:58.208Z,100599.06
2023-08-22T17:51:25.481Z,100610.56
2023-08-22T17:53:54.207Z,100614.13
2023-08-22T17:56:21.718Z,100603.22
2023-08-22T17:58:48.899Z,100593.88
2023-08-22T18:01:16.286Z,100623.47
2023-08-22T18:03:43.617Z,100632.47
2023-08-22T18:06:11.063Z,100635.88
2023-08-22T18:08:38.195Z,100633.72
2023-08-22T18:11:05.466Z,100616.69
2023-08-22T18:13:32.662Z,100628.31
2023-08-22T18:16:10.261Z,100635.75
2023-08-22T18:18:41.053Z,100634.06
2023-08-22T18:21:11.235Z,100635.06
2023-08-22T18:23:39.608Z,100636.84
2023-08-22T18:26:12.241Z,100638.69
2023-08-22T18:28:40.380Z,100638.25
2023-08-22T18:31:11.631Z,100641.94
2023-08-22T18:33:39.520Z,100639.00
2023-08-22T18:36:17.541Z,100651.28
2023-08-22T18:38:45.162Z,100647.44
2023-08-22T18:41:12.428Z,100648.63
2023-08-22T18:43:39.648Z,100660.00
2023-08-22T18:46:06.825Z,100653.50
2023-08-22T18:48:34.099Z,100664.09
2023-08-22T18:51:04.433Z,100667.19
2023-08-22T18:53:31.532Z,100669.56
2023-08-22T18:55:58.830Z,100668.19
2023-08-22T18:58:30.996Z,100672.03
2023-08-22T19:00:59.367Z,100662.19
2023-08-22T19:03:26.881Z,100663.94
2023-08-22T19:05:54.651Z,100672.88
2023-08-22T19:08:21.998Z,100671.31
2023-08-22T19:10:50.564Z,100655.34
2023-08-22T19:13:17.818Z,100673.59
2023-08-22T19:15:48.574Z,100672.03
2023-08-22T19:18:16.119Z,100656.81
2023-08-22T19:20:46.382Z,100674.16
2023-08-22T19:23:16.129Z,100665.69
2023-08-22T19:25:43.660Z,100660.63
2023-08-22T19:28:12.225Z,100664.31
2023-08-22T19:30:39.411Z,100662.88
2023-08-22T19:33:17.598Z,100659.59
2023-08-22T19:35:46.021Z,100671.94
2023-08-22T19:38:13.564Z,100665.25
2023-08-22T19:40:46.400Z,100667.09
2023-08-22T19:43:17.836Z,100664.78
2023-08-22T19:45:45.990Z,100672.63
2023-08-22T19:48:13.528Z,100660.66
2023-08-22T19:50:40.813Z,100666.06
2023-08-22T19:53:08.070Z,100674.13
2023-08-22T19:55:35.335Z,100674.56
2023-08-22T19:58:02.599Z,100682.72
2023-08-22T20:00:29.887Z,100681.88
2023-08-22T20:02:57.180Z,100675.03
2023-08-22T20:05:24.635Z,100676.25
2023-08-22T20:07:54.176Z,100674.66
2023-08-22T20:10:22.468Z,100677.28
2023-08-22T20:12:50.198Z,100663.44
2023-08-22T20:15:18.144Z,100676.66
2023-08-22T20:17:46.363Z,100669.94
2023-08-22T20:20:14.071Z,100672.00
2023-08-22T20:22:41.480Z,100670.50
2023-08-22T20:25:09.062Z,100683.88
2023-08-22T20:27:36.372Z,100672.97
2023-08-22T20:30:03.810Z,100676.41
2023-08-22T20:32:31.258Z,100672.25
2023-08-22T20:34:58.398Z,100684.56
2023-08-22T20:37:25.539Z,100673.56
2023-08-22T20:39:52.721Z,100685.88
2023-08-22T20:42:19.918Z,100680.06
2023-08-22T20:44:47.131Z,100685.31
2023-08-22T20:47:14.249Z,100689.91
2023-08-22T20:49:41.809Z,100691.00
2023-08-22T20:52:09.017Z,100695.34
2023-08-22T20:54:36.264Z,100702.31
2023-08-22T20:57:03.451Z,100701.41
2023-08-22T20:59:30.709Z,100687.44
2023-08-22T21:01:57.802Z,100691.84
2023-08-22T21:04:25.047Z,100686.91
2023-08-22T21:06:52.249Z,100694.09
2023-08-22T21:09:19.626Z,100692.28
2023-08-22T21:11:46.733Z,100692.28
2023-08-22T21:14:13.936Z,100690.81
2023-08-22T21:16:41.180Z,100701.47
2023-08-22T21:19:08.290Z,100700.97
2023-08-22T21:21:35.465Z,100691.88
2023-08-22T21:24:02.656Z,100697.22
2023-08-22T21:26:30.069Z,100678.53
2023-08-22T21:28:57.298Z,100683.00
2023-08-22T21:31:24.529Z,100689.91
2023-08-22T21:33:51.871Z,100696.72
2023-08-22T21:36:18.980Z,100692.31
2023-08-22T21:38:51.917Z,100687.97
2023-08-22T21:41:19.694Z,100697.56
2023-08-22T21:43:46.789Z,100698.44
2023-08-22T21:46:14.617Z,100697.69
2023-08-22T21:48:41.806Z,100703.78
2023-08-22T21:51:08.890Z,100699.47
2023-08-22T21:53:36.083Z,100694.38
2023-08-22T21:56:03.172Z,100710.94
2023-08-22T21:58:30.278Z,100699.59
2023-08-22T22:01:08.812Z,100713.69
2023-08-22T22:03:36.794Z,100710.34
2023-08-22T22:06:04.136Z,100713.69
2023-08-22T22:08:31.321Z,100708.44
2023-08-22T22:10:58.444Z,100714.75
2023-08-22T22:13:25.827Z,100712.28
2023-08-22T22:15:55.091Z,100714.81
2023-08-22T22:18:23.906Z,100708.88
2023-08-22T22:20:57.931Z,100707.47
2023-08-22T22:23:25.483Z,100712.91
2023-08-22T22:26:03.013Z,100710.47
2023-08-22T22:28:31.293Z,100704.53
2023-08-22T22:30:58.839Z,100706.50
2023-08-22T22:33:26.335Z,100703.28
2023-08-22T22:35:53.606Z,100711.19
2023-08-22T22:38:20.975Z,100682.19
2023-08-22T22:40:48.264Z,100711.63
2023-08-22T22:43:15.384Z,100703.88
2023-08-22T22:45:42.547Z,100710.09
2023-08-22T22:48:09.911Z,100704.06
2023-08-22T22:50:40.975Z,100709.47
2023-08-22T22:53:08.091Z,100703.41
2023-08-22T22:55:35.312Z,100703.41
2023-08-22T22:58:02.494Z,100704.16
2023-08-22T23:00:30.028Z,100697.22
2023-08-22T23:02:58.507Z,100700.66
2023-08-22T23:05:27.121Z,100695.53
2023-08-22T23:07:55.245Z,100707.78
2023-08-22T23:10:22.810Z,100705.19
2023-08-22T23:12:50.619Z,100695.78
2023-08-22T23:15:17.853Z,100697.59
2023-08-22T23:17:48.228Z,100698.50
2023-08-22T23:20:18.636Z,100694.25
2023-08-22T23:22:47.655Z,100692.31
2023-08-22T23:25:15.467Z,100690.56
2023-08-22T23:27:43.504Z,100697.59
2023-08-22T23:30:13.043Z,100695.16
2023-08-22T23:32:40.211Z,100691.16
2023-08-22T23:35:08.991Z,100697.47
2023-08-22T23:37:36.431Z,100689.75
2023-08-22T23:40:21.458Z,100695.91
2023-08-22T23:42:50.676Z,100697.69
2023-08-22T23:45:18.306Z,100689.94
2023-08-22T23:47:45.675Z,100696.91
2023-08-22T23:50:13.358Z,100690.78
2023-08-22T23:52:40.516Z,100681.56
2023-08-22T23:55:09.134Z,100697.06
2023-08-22T23:57:37.033Z,100697.06
